sensor_id;sensor_type;location;lat;lon;timestamp;P1;durP1;ratioP1;P2;durP2;ratioP2
7191;SDS011;3637;51.494;11.958;2023-02-03T00:01:39;1.90;;;1.80;;
7191;SDS011;3637;51.494;11.958;2023-02-03T00:04:41;1.80;;;1.63;;
7191;SDS011;3637;51.494;11.958;2023-02-03T00:07:43;2.07;;;1.87;;
7191;SDS011;3637;51.494;11.958;2023-02-03T00:10:44;3.20;;;2.10;;
7191;SDS011;3637;51.494;11.958;2023-02-03T00:13:48;2.13;;;1.87;;
7191;SDS011;3637;51.494;11.958;2023-02-03T00:16:50;2.80;;;1.73;;
7191;SDS011;3637;51.494;11.958;2023-02-03T00:19:52;1.70;;;1.60;;
7191;SDS011;3637;51.494;11.958;2023-02-03T00:22:53;3.53;;;2.00;;
7191;SDS011;3637;51.494;11.958;2023-02-03T00:25:55;2.03;;;1.83;;
7191;SDS011;3637;51.494;11.958;2023-02-03T00:28:59;1.90;;;1.70;;
7191;SDS011;3637;51.494;11.958;2023-02-03T00:32:01;3.87;;;1.87;;
7191;SDS011;3637;51.494;11.958;2023-02-03T00:35:02;1.80;;;1.70;;
7191;SDS011;3637;51.494;11.958;2023-02-03T00:38:05;2.33;;;1.80;;
7191;SDS011;3637;51.494;11.958;2023-02-03T00:41:07;1.90;;;1.70;;
7191;SDS011;3637;51.494;11.958;2023-02-03T00:44:10;2.30;;;2.00;;
7191;SDS011;3637;51.494;11.958;2023-02-03T00:47:12;1.77;;;1.67;;
7191;SDS011;3637;51.494;11.958;2023-02-03T00:50:13;3.07;;;2.20;;
7191;SDS011;3637;51.494;11.958;2023-02-03T00:53:16;2.60;;;2.20;;
7191;SDS011;3637;51.494;11.958;2023-02-03T00:56:17;2.20;;;2.00;;
7191;SDS011;3637;51.494;11.958;2023-02-03T00:59:21;2.57;;;2.30;;
7191;SDS011;3637;51.494;11.958;2023-02-03T01:02:22;3.27;;;2.30;;
7191;SDS011;3637;51.494;11.958;2023-02-03T01:05:25;2.30;;;2.10;;
7191;SDS011;3637;51.494;11.958;2023-02-03T01:08:26;2.20;;;1.90;;
7191;SDS011;3637;51.494;11.958;2023-02-03T01:11:28;2.90;;;2.60;;
7191;SDS011;3637;51.494;11.958;2023-02-03T01:14:32;3.30;;;2.23;;
7191;SDS011;3637;51.494;11.958;2023-02-03T01:17:35;2.67;;;1.80;;
7191;SDS011;3637;51.494;11.958;2023-02-03T01:20:37;2.07;;;1.83;;
7191;SDS011;3637;51.494;11.958;2023-02-03T01:23:39;4.50;;;2.00;;
7191;SDS011;3637;51.494;11.958;2023-02-03T01:26:41;2.20;;;2.00;;
7191;SDS011;3637;51.494;11.958;2023-02-03T01:29:46;2.27;;;2.07;;
7191;SDS011;3637;51.494;11.958;2023-02-03T01:32:48;3.83;;;2.07;;
7191;SDS011;3637;51.494;11.958;2023-02-03T01:35:49;1.70;;;1.60;;
7191;SDS011;3637;51.494;11.958;2023-02-03T01:38:52;1.97;;;1.80;;
7191;SDS011;3637;51.494;11.958;2023-02-03T01:41:54;1.90;;;1.80;;
7191;SDS011;3637;51.494;11.958;2023-02-03T01:44:58;1.80;;;1.70;;
7191;SDS011;3637;51.494;11.958;2023-02-03T01:47:59;2.20;;;2.00;;
7191;SDS011;3637;51.494;11.958;2023-02-03T01:51:02;1.93;;;1.83;;
7191;SDS011;3637;51.494;11.958;2023-02-03T01:54:05;3.50;;;1.87;;
7191;SDS011;3637;51.494;11.958;2023-02-03T01:57:09;2.50;;;1.80;;
7191;SDS011;3637;51.494;11.958;2023-02-03T02:00:18;2.30;;;2.07;;
7191;SDS011;3637;51.494;11.958;2023-02-03T02:03:22;2.40;;;2.00;;
7191;SDS011;3637;51.494;11.958;2023-02-03T02:06:25;2.37;;;2.00;;
7191;SDS011;3637;51.494;11.958;2023-02-03T02:09:27;3.20;;;2.37;;
7191;SDS011;3637;51.494;11.958;2023-02-03T02:12:29;2.67;;;2.10;;
7191;SDS011;3637;51.494;11.958;2023-02-03T02:15:34;2.43;;;2.20;;
7191;SDS011;3637;51.494;11.958;2023-02-03T02:18:57;3.70;;;2.37;;
7191;SDS011;3637;51.494;11.958;2023-02-03T02:22:10;2.50;;;2.30;;
7191;SDS011;3637;51.494;11.958;2023-02-03T02:25:30;3.33;;;2.70;;
7191;SDS011;3637;51.494;11.958;2023-02-03T02:28:54;4.27;;;2.87;;
7191;SDS011;3637;51.494;11.958;2023-02-03T02:32:27;4.20;;;2.87;;
7191;SDS011;3637;51.494;11.958;2023-02-03T02:35:43;3.27;;;2.97;;
7191;SDS011;3637;51.494;11.958;2023-02-03T02:38:54;3.80;;;3.20;;
7191;SDS011;3637;51.494;11.958;2023-02-03T02:42:04;4.27;;;3.03;;
7191;SDS011;3637;51.494;11.958;2023-02-03T02:45:14;5.73;;;3.80;;
7191;SDS011;3637;51.494;11.958;2023-02-03T02:48:22;4.40;;;3.60;;
7191;SDS011;3637;51.494;11.958;2023-02-03T02:51:29;5.40;;;4.03;;
7191;SDS011;3637;51.494;11.958;2023-02-03T02:54:33;5.23;;;4.13;;
7191;SDS011;3637;51.494;11.958;2023-02-03T02:57:39;4.20;;;3.50;;
7191;SDS011;3637;51.494;11.958;2023-02-03T03:00:42;5.90;;;4.03;;
7191;SDS011;3637;51.494;11.958;2023-02-03T03:03:48;5.17;;;3.73;;
7191;SDS011;3637;51.494;11.958;2023-02-03T03:06:51;6.23;;;4.40;;
7191;SDS011;3637;51.494;11.958;2023-02-03T03:09:58;5.50;;;4.10;;
7191;SDS011;3637;51.494;11.958;2023-02-03T03:13:04;5.90;;;4.47;;
7191;SDS011;3637;51.494;11.958;2023-02-03T03:16:12;5.70;;;4.30;;
7191;SDS011;3637;51.494;11.958;2023-02-03T03:19:17;6.23;;;3.90;;
7191;SDS011;3637;51.494;11.958;2023-02-03T03:22:23;5.33;;;4.20;;
7191;SDS011;3637;51.494;11.958;2023-02-03T03:25:29;7.17;;;4.40;;
7191;SDS011;3637;51.494;11.958;2023-02-03T03:28:39;7.00;;;4.57;;
7191;SDS011;3637;51.494;11.958;2023-02-03T03:31:45;6.87;;;4.10;;
7191;SDS011;3637;51.494;11.958;2023-02-03T03:34:52;6.47;;;4.57;;
7191;SDS011;3637;51.494;11.958;2023-02-03T03:37:55;7.40;;;5.03;;
7191;SDS011;3637;51.494;11.958;2023-02-03T03:41:01;8.10;;;4.90;;
7191;SDS011;3637;51.494;11.958;2023-02-03T03:44:09;7.03;;;4.90;;
7191;SDS011;3637;51.494;11.958;2023-02-03T03:47:15;7.20;;;5.13;;
7191;SDS011;3637;51.494;11.958;2023-02-03T03:50:24;7.37;;;4.77;;
7191;SDS011;3637;51.494;11.958;2023-02-03T03:53:32;6.93;;;4.60;;
7191;SDS011;3637;51.494;11.958;2023-02-03T03:56:40;6.47;;;4.83;;
7191;SDS011;3637;51.494;11.958;2023-02-03T03:59:47;6.63;;;4.80;;
7191;SDS011;3637;51.494;11.958;2023-02-03T04:02:51;7.37;;;4.80;;
7191;SDS011;3637;51.494;11.958;2023-02-03T04:05:57;7.23;;;5.13;;
7191;SDS011;3637;51.494;11.958;2023-02-03T04:08:59;8.50;;;4.67;;
7191;SDS011;3637;51.494;11.958;2023-02-03T04:12:02;6.80;;;5.13;;
7191;SDS011;3637;51.494;11.958;2023-02-03T04:15:05;8.70;;;5.80;;
7191;SDS011;3637;51.494;11.958;2023-02-03T04:18:08;7.97;;;5.50;;
7191;SDS011;3637;51.494;11.958;2023-02-03T04:21:13;9.53;;;5.40;;
7191;SDS011;3637;51.494;11.958;2023-02-03T04:24:15;7.67;;;5.23;;
7191;SDS011;3637;51.494;11.958;2023-02-03T04:27:17;8.53;;;5.33;;
7191;SDS011;3637;51.494;11.958;2023-02-03T04:30:19;8.00;;;4.83;;
7191;SDS011;3637;51.494;11.958;2023-02-03T04:33:20;7.67;;;5.40;;
7191;SDS011;3637;51.494;11.958;2023-02-03T04:36:24;8.03;;;5.43;;
7191;SDS011;3637;51.494;11.958;2023-02-03T04:39:25;6.27;;;4.67;;
7191;SDS011;3637;51.494;11.958;2023-02-03T04:42:28;9.67;;;6.27;;
7191;SDS011;3637;51.494;11.958;2023-02-03T04:45:29;7.57;;;5.83;;
7191;SDS011;3637;51.494;11.958;2023-02-03T04:48:31;6.57;;;4.70;;
7191;SDS011;3637;51.494;11.958;2023-02-03T04:51:34;8.13;;;5.33;;
7191;SDS011;3637;51.494;11.958;2023-02-03T04:54:36;9.17;;;5.50;;
7191;SDS011;3637;51.494;11.958;2023-02-03T04:57:38;6.87;;;4.57;;
7191;SDS011;3637;51.494;11.958;2023-02-03T05:00:40;8.67;;;5.20;;
7191;SDS011;3637;51.494;11.958;2023-02-03T05:03:42;8.47;;;5.10;;
7191;SDS011;3637;51.494;11.958;2023-02-03T05:06:45;7.43;;;5.20;;
7191;SDS011;3637;51.494;11.958;2023-02-03T05:09:47;8.20;;;5.00;;
7191;SDS011;3637;51.494;11.958;2023-02-03T05:12:49;8.57;;;5.23;;
7191;SDS011;3637;51.494;11.958;2023-02-03T05:15:51;8.13;;;5.20;;
7191;SDS011;3637;51.494;11.958;2023-02-03T05:18:52;6.87;;;5.03;;
7191;SDS011;3637;51.494;11.958;2023-02-03T05:21:55;8.00;;;5.40;;
7191;SDS011;3637;51.494;11.958;2023-02-03T05:24:57;8.27;;;5.63;;
7191;SDS011;3637;51.494;11.958;2023-02-03T05:27:59;6.50;;;5.50;;
7191;SDS011;3637;51.494;11.958;2023-02-03T05:31:01;8.17;;;5.20;;
7191;SDS011;3637;51.494;11.958;2023-02-03T05:34:02;7.73;;;5.60;;
7191;SDS011;3637;51.494;11.958;2023-02-03T05:37:06;8.77;;;5.73;;
7191;SDS011;3637;51.494;11.958;2023-02-03T05:40:11;8.27;;;5.13;;
7191;SDS011;3637;51.494;11.958;2023-02-03T05:43:30;9.50;;;5.17;;
7191;SDS011;3637;51.494;11.958;2023-02-03T05:46:32;9.10;;;5.53;;
7191;SDS011;3637;51.494;11.958;2023-02-03T05:49:34;6.40;;;4.73;;
7191;SDS011;3637;51.494;11.958;2023-02-03T05:52:37;5.97;;;4.17;;
7191;SDS011;3637;51.494;11.958;2023-02-03T05:55:39;8.57;;;5.40;;
7191;SDS011;3637;51.494;11.958;2023-02-03T05:58:40;7.70;;;5.53;;
7191;SDS011;3637;51.494;11.958;2023-02-03T06:01:42;7.43;;;5.40;;
7191;SDS011;3637;51.494;11.958;2023-02-03T06:04:44;6.80;;;4.60;;
7191;SDS011;3637;51.494;11.958;2023-02-03T06:07:50;6.63;;;4.83;;
7191;SDS011;3637;51.494;11.958;2023-02-03T06:10:55;7.97;;;5.10;;
7191;SDS011;3637;51.494;11.958;2023-02-03T06:13:58;7.10;;;4.90;;
7191;SDS011;3637;51.494;11.958;2023-02-03T06:17:00;6.40;;;4.83;;
7191;SDS011;3637;51.494;11.958;2023-02-03T06:20:02;9.53;;;5.27;;
7191;SDS011;3637;51.494;11.958;2023-02-03T06:23:06;8.47;;;4.40;;
7191;SDS011;3637;51.494;11.958;2023-02-03T06:26:07;6.00;;;4.43;;
7191;SDS011;3637;51.494;11.958;2023-02-03T06:29:09;5.93;;;4.40;;
7191;SDS011;3637;51.494;11.958;2023-02-03T06:32:11;7.97;;;4.87;;
7191;SDS011;3637;51.494;11.958;2023-02-03T06:35:13;7.00;;;4.37;;
7191;SDS011;3637;51.494;11.958;2023-02-03T06:38:16;7.07;;;4.63;;
7191;SDS011;3637;51.494;11.958;2023-02-03T06:41:18;5.63;;;4.57;;
7191;SDS011;3637;51.494;11.958;2023-02-03T06:44:20;6.63;;;4.50;;
7191;SDS011;3637;51.494;11.958;2023-02-03T06:47:22;6.57;;;4.60;;
7191;SDS011;3637;51.494;11.958;2023-02-03T06:50:24;6.53;;;4.73;;
7191;SDS011;3637;51.494;11.958;2023-02-03T06:53:27;6.53;;;4.63;;
7191;SDS011;3637;51.494;11.958;2023-02-03T06:56:29;7.20;;;4.90;;
7191;SDS011;3637;51.494;11.958;2023-02-03T06:59:31;6.37;;;5.20;;
7191;SDS011;3637;51.494;11.958;2023-02-03T07:02:33;7.03;;;4.67;;
7191;SDS011;3637;51.494;11.958;2023-02-03T07:05:34;5.90;;;4.80;;
7191;SDS011;3637;51.494;11.958;2023-02-03T07:08:38;7.03;;;4.30;;
7191;SDS011;3637;51.494;11.958;2023-02-03T07:11:40;7.33;;;4.63;;
7191;SDS011;3637;51.494;11.958;2023-02-03T07:14:42;5.37;;;4.33;;
7191;SDS011;3637;51.494;11.958;2023-02-03T07:17:45;6.40;;;4.50;;
7191;SDS011;3637;51.494;11.958;2023-02-03T07:20:53;5.07;;;4.50;;
7191;SDS011;3637;51.494;11.958;2023-02-03T07:23:56;5.90;;;4.07;;
7191;SDS011;3637;51.494;11.958;2023-02-03T07:26:58;7.67;;;4.37;;
7191;SDS011;3637;51.494;11.958;2023-02-03T07:30:00;4.67;;;4.17;;
7191;SDS011;3637;51.494;11.958;2023-02-03T07:33:01;7.63;;;4.87;;
7191;SDS011;3637;51.494;11.958;2023-02-03T07:36:05;4.83;;;4.00;;
7191;SDS011;3637;51.494;11.958;2023-02-03T07:39:09;7.50;;;4.03;;
7191;SDS011;3637;51.494;11.958;2023-02-03T07:42:11;4.80;;;3.53;;
7191;SDS011;3637;51.494;11.958;2023-02-03T07:45:14;5.07;;;4.00;;
7191;SDS011;3637;51.494;11.958;2023-02-03T07:48:17;6.10;;;4.10;;
7191;SDS011;3637;51.494;11.958;2023-02-03T07:51:19;5.90;;;4.03;;
7191;SDS011;3637;51.494;11.958;2023-02-03T07:54:24;6.27;;;4.17;;
7191;SDS011;3637;51.494;11.958;2023-02-03T07:57:26;6.67;;;4.43;;
7191;SDS011;3637;51.494;11.958;2023-02-03T08:00:28;4.37;;;3.83;;
7191;SDS011;3637;51.494;11.958;2023-02-03T08:03:30;6.90;;;4.27;;
7191;SDS011;3637;51.494;11.958;2023-02-03T08:06:34;6.60;;;4.17;;
7191;SDS011;3637;51.494;11.958;2023-02-03T08:09:37;5.80;;;4.40;;
7191;SDS011;3637;51.494;11.958;2023-02-03T08:12:39;7.83;;;4.47;;
7191;SDS011;3637;51.494;11.958;2023-02-03T08:15:42;5.97;;;4.20;;
7191;SDS011;3637;51.494;11.958;2023-02-03T08:18:43;7.10;;;3.70;;
7191;SDS011;3637;51.494;11.958;2023-02-03T08:21:45;5.43;;;4.23;;
7191;SDS011;3637;51.494;11.958;2023-02-03T08:24:48;6.17;;;4.30;;
7191;SDS011;3637;51.494;11.958;2023-02-03T08:27:51;6.37;;;3.93;;
7191;SDS011;3637;51.494;11.958;2023-02-03T08:30:53;5.03;;;3.77;;
7191;SDS011;3637;51.494;11.958;2023-02-03T08:33:56;6.87;;;4.30;;
7191;SDS011;3637;51.494;11.958;2023-02-03T08:36:58;4.77;;;3.80;;
7191;SDS011;3637;51.494;11.958;2023-02-03T08:40:01;5.87;;;3.53;;
7191;SDS011;3637;51.494;11.958;2023-02-03T08:43:04;5.03;;;3.87;;
7191;SDS011;3637;51.494;11.958;2023-02-03T08:46:07;3.90;;;3.40;;
7191;SDS011;3637;51.494;11.958;2023-02-03T08:49:13;4.30;;;3.10;;
7191;SDS011;3637;51.494;11.958;2023-02-03T08:52:15;4.47;;;3.30;;
7191;SDS011;3637;51.494;11.958;2023-02-03T08:55:19;4.50;;;3.40;;
7191;SDS011;3637;51.494;11.958;2023-02-03T08:58:20;5.00;;;3.40;;
7191;SDS011;3637;51.494;11.958;2023-02-03T09:01:22;4.70;;;3.33;;
7191;SDS011;3637;51.494;11.958;2023-02-03T09:04:24;7.20;;;3.03;;
7191;SDS011;3637;51.494;11.958;2023-02-03T09:07:27;3.50;;;3.03;;
7191;SDS011;3637;51.494;11.958;2023-02-03T09:10:31;3.40;;;3.10;;
7191;SDS011;3637;51.494;11.958;2023-02-03T09:13:33;3.03;;;2.73;;
7191;SDS011;3637;51.494;11.958;2023-02-03T09:16:35;3.20;;;2.80;;
7191;SDS011;3637;51.494;11.958;2023-02-03T09:19:37;3.83;;;3.00;;
7191;SDS011;3637;51.494;11.958;2023-02-03T09:22:39;4.07;;;2.80;;
7191;SDS011;3637;51.494;11.958;2023-02-03T09:25:42;4.10;;;3.10;;
7191;SDS011;3637;51.494;11.958;2023-02-03T09:28:44;4.70;;;2.70;;
7191;SDS011;3637;51.494;11.958;2023-02-03T09:31:47;3.30;;;2.70;;
7191;SDS011;3637;51.494;11.958;2023-02-03T09:34:54;2.80;;;2.57;;
7191;SDS011;3637;51.494;11.958;2023-02-03T09:37:57;4.73;;;2.80;;
7191;SDS011;3637;51.494;11.958;2023-02-03T09:41:02;3.17;;;2.60;;
7191;SDS011;3637;51.494;11.958;2023-02-03T09:44:14;3.43;;;2.57;;
7191;SDS011;3637;51.494;11.958;2023-02-03T09:47:21;2.90;;;2.60;;
7191;SDS011;3637;51.494;11.958;2023-02-03T09:50:27;4.27;;;2.90;;
7191;SDS011;3637;51.494;11.958;2023-02-03T09:53:34;2.97;;;2.67;;
7191;SDS011;3637;51.494;11.958;2023-02-03T09:56:45;3.17;;;2.50;;
7191;SDS011;3637;51.494;11.958;2023-02-03T09:59:51;2.57;;;2.37;;
7191;SDS011;3637;51.494;11.958;2023-02-03T10:02:56;2.67;;;2.40;;
7191;SDS011;3637;51.494;11.958;2023-02-03T10:06:13;2.87;;;2.10;;
7191;SDS011;3637;51.494;11.958;2023-02-03T10:09:24;2.80;;;2.23;;
7191;SDS011;3637;51.494;11.958;2023-02-03T10:12:42;2.20;;;2.00;;
7191;SDS011;3637;51.494;11.958;2023-02-03T10:15:55;3.10;;;2.30;;
7191;SDS011;3637;51.494;11.958;2023-02-03T10:19:10;2.20;;;2.00;;
7191;SDS011;3637;51.494;11.958;2023-02-03T10:22:17;2.33;;;2.13;;
7191;SDS011;3637;51.494;11.958;2023-02-03T10:25:23;2.53;;;2.10;;
7191;SDS011;3637;51.494;11.958;2023-02-03T10:28:34;3.07;;;2.13;;
7191;SDS011;3637;51.494;11.958;2023-02-03T10:31:39;2.00;;;1.90;;
7191;SDS011;3637;51.494;11.958;2023-02-03T10:34:43;3.23;;;2.40;;
7191;SDS011;3637;51.494;11.958;2023-02-03T10:37:48;2.43;;;1.97;;
7191;SDS011;3637;51.494;11.958;2023-02-03T10:40:52;2.73;;;1.90;;
7191;SDS011;3637;51.494;11.958;2023-02-03T10:43:55;1.93;;;1.77;;
7191;SDS011;3637;51.494;11.958;2023-02-03T10:46:58;2.20;;;2.00;;
7191;SDS011;3637;51.494;11.958;2023-02-03T10:50:00;2.37;;;2.17;;
7191;SDS011;3637;51.494;11.958;2023-02-03T10:53:23;2.17;;;1.93;;
7191;SDS011;3637;51.494;11.958;2023-02-03T10:56:26;1.83;;;1.67;;
7191;SDS011;3637;51.494;11.958;2023-02-03T10:59:34;2.77;;;2.30;;
7191;SDS011;3637;51.494;11.958;2023-02-03T11:02:41;4.37;;;2.43;;
7191;SDS011;3637;51.494;11.958;2023-02-03T11:05:43;2.10;;;1.90;;
7191;SDS011;3637;51.494;11.958;2023-02-03T11:08:45;2.30;;;2.10;;
7191;SDS011;3637;51.494;11.958;2023-02-03T11:11:48;4.07;;;2.10;;
7191;SDS011;3637;51.494;11.958;2023-02-03T11:15:13;2.53;;;2.10;;
7191;SDS011;3637;51.494;11.958;2023-02-03T11:18:25;2.40;;;2.20;;
7191;SDS011;3637;51.494;11.958;2023-02-03T11:21:41;4.40;;;2.03;;
7191;SDS011;3637;51.494;11.958;2023-02-03T11:24:46;2.90;;;2.07;;
7191;SDS011;3637;51.494;11.958;2023-02-03T11:27:51;3.40;;;2.20;;
7191;SDS011;3637;51.494;11.958;2023-02-03T11:30:59;2.07;;;1.70;;
7191;SDS011;3637;51.494;11.958;2023-02-03T11:34:04;1.70;;;1.60;;
7191;SDS011;3637;51.494;11.958;2023-02-03T11:37:24;1.20;;;1.20;;
7191;SDS011;3637;51.494;11.958;2023-02-03T11:40:30;1.30;;;1.20;;
7191;SDS011;3637;51.494;11.958;2023-02-03T11:43:37;1.43;;;1.33;;
7191;SDS011;3637;51.494;11.958;2023-02-03T11:46:40;1.13;;;1.03;;
7191;SDS011;3637;51.494;11.958;2023-02-03T11:53:23;1.73;;;1.10;;
7191;SDS011;3637;51.494;11.958;2023-02-03T11:56:44;2.00;;;1.23;;
7191;SDS011;3637;51.494;11.958;2023-02-03T12:00:08;1.10;;;1.00;;
7191;SDS011;3637;51.494;11.958;2023-02-03T12:03:24;1.10;;;1.10;;
7191;SDS011;3637;51.494;11.958;2023-02-03T12:06:57;0.80;;;0.80;;
7191;SDS011;3637;51.494;11.958;2023-02-03T12:10:08;1.00;;;1.00;;
7191;SDS011;3637;51.494;11.958;2023-02-03T12:13:25;1.03;;;1.03;;
7191;SDS011;3637;51.494;11.958;2023-02-03T12:16:51;0.90;;;0.90;;
7191;SDS011;3637;51.494;11.958;2023-02-03T12:20:11;1.00;;;1.00;;
7191;SDS011;3637;51.494;11.958;2023-02-03T12:23:28;0.80;;;0.80;;
7191;SDS011;3637;51.494;11.958;2023-02-03T12:26:37;1.00;;;0.90;;
7191;SDS011;3637;51.494;11.958;2023-02-03T12:29:48;2.67;;;1.00;;
7191;SDS011;3637;51.494;11.958;2023-02-03T12:32:56;2.37;;;1.10;;
7191;SDS011;3637;51.494;11.958;2023-02-03T12:36:05;1.70;;;1.10;;
7191;SDS011;3637;51.494;11.958;2023-02-03T12:39:14;1.97;;;1.10;;
7191;SDS011;3637;51.494;11.958;2023-02-03T12:42:23;1.40;;;1.10;;
7191;SDS011;3637;51.494;11.958;2023-02-03T12:45:33;2.23;;;1.40;;
7191;SDS011;3637;51.494;11.958;2023-02-03T12:48:41;2.13;;;1.27;;
7191;SDS011;3637;51.494;11.958;2023-02-03T12:51:51;1.43;;;1.30;;
7191;SDS011;3637;51.494;11.958;2023-02-03T12:54:58;3.60;;;1.60;;
7191;SDS011;3637;51.494;11.958;2023-02-03T12:58:09;3.73;;;1.50;;
7191;SDS011;3637;51.494;11.958;2023-02-03T13:01:14;3.10;;;1.47;;
7191;SDS011;3637;51.494;11.958;2023-02-03T13:04:23;3.10;;;1.60;;
7191;SDS011;3637;51.494;11.958;2023-02-03T13:07:32;2.33;;;1.50;;
7191;SDS011;3637;51.494;11.958;2023-02-03T13:10:40;4.37;;;1.73;;
7191;SDS011;3637;51.494;11.958;2023-02-03T13:13:51;7.00;;;1.90;;
7191;SDS011;3637;51.494;11.958;2023-02-03T13:16:57;8.33;;;1.70;;
7191;SDS011;3637;51.494;11.958;2023-02-03T13:20:05;5.83;;;2.27;;
7191;SDS011;3637;51.494;11.958;2023-02-03T13:23:18;3.03;;;1.73;;
7191;SDS011;3637;51.494;11.958;2023-02-03T13:26:36;4.83;;;2.10;;
7191;SDS011;3637;51.494;11.958;2023-02-03T13:29:57;2.80;;;1.80;;
7191;SDS011;3637;51.494;11.958;2023-02-03T13:33:27;3.40;;;1.40;;
7191;SDS011;3637;51.494;11.958;2023-02-03T13:36:49;3.00;;;1.93;;
7191;SDS011;3637;51.494;11.958;2023-02-03T13:40:15;4.63;;;1.90;;
7191;SDS011;3637;51.494;11.958;2023-02-03T13:43:25;3.90;;;2.00;;
7191;SDS011;3637;51.494;11.958;2023-02-03T13:46:31;5.33;;;1.70;;
7191;SDS011;3637;51.494;11.958;2023-02-03T13:49:36;2.27;;;1.93;;
7191;SDS011;3637;51.494;11.958;2023-02-03T13:52:42;6.03;;;1.87;;
7191;SDS011;3637;51.494;11.958;2023-02-03T13:55:53;2.67;;;2.00;;
7191;SDS011;3637;51.494;11.958;2023-02-03T13:58:59;5.70;;;2.03;;
7191;SDS011;3637;51.494;11.958;2023-02-03T14:05:49;4.33;;;1.80;;
7191;SDS011;3637;51.494;11.958;2023-02-03T14:08:57;6.47;;;2.03;;
7191;SDS011;3637;51.494;11.958;2023-02-03T14:15:37;5.90;;;1.87;;
7191;SDS011;3637;51.494;11.958;2023-02-03T14:18:42;5.80;;;2.27;;
7191;SDS011;3637;51.494;11.958;2023-02-03T14:21:46;8.37;;;2.10;;
7191;SDS011;3637;51.494;11.958;2023-02-03T14:24:51;10.43;;;2.53;;
7191;SDS011;3637;51.494;11.958;2023-02-03T14:27:58;8.37;;;1.90;;
7191;SDS011;3637;51.494;11.958;2023-02-03T14:31:12;3.87;;;1.60;;
7191;SDS011;3637;51.494;11.958;2023-02-03T14:34:17;4.93;;;2.10;;
7191;SDS011;3637;51.494;11.958;2023-02-03T14:37:28;6.20;;;2.00;;
7191;SDS011;3637;51.494;11.958;2023-02-03T14:40:32;9.03;;;2.53;;
7191;SDS011;3637;51.494;11.958;2023-02-03T14:43:42;9.63;;;2.10;;
7191;SDS011;3637;51.494;11.958;2023-02-03T14:46:55;5.43;;;1.67;;
7191;SDS011;3637;51.494;11.958;2023-02-03T14:50:20;8.03;;;2.00;;
7191;SDS011;3637;51.494;11.958;2023-02-03T14:53:46;7.03;;;2.57;;
7191;SDS011;3637;51.494;11.958;2023-02-03T14:57:01;7.67;;;2.40;;
7191;SDS011;3637;51.494;11.958;2023-02-03T15:00:27;4.33;;;2.33;;
7191;SDS011;3637;51.494;11.958;2023-02-03T15:03:33;4.93;;;2.00;;
7191;SDS011;3637;51.494;11.958;2023-02-03T15:06:37;6.67;;;2.40;;
7191;SDS011;3637;51.494;11.958;2023-02-03T15:09:41;6.10;;;2.40;;
7191;SDS011;3637;51.494;11.958;2023-02-03T15:12:46;4.13;;;2.00;;
7191;SDS011;3637;51.494;11.958;2023-02-03T15:15:54;4.77;;;1.67;;
7191;SDS011;3637;51.494;11.958;2023-02-03T15:18:58;8.47;;;2.20;;
7191;SDS011;3637;51.494;11.958;2023-02-03T15:22:18;4.47;;;1.97;;
7191;SDS011;3637;51.494;11.958;2023-02-03T15:25:22;7.67;;;1.77;;
7191;SDS011;3637;51.494;11.958;2023-02-03T15:28:25;6.23;;;1.93;;
7191;SDS011;3637;51.494;11.958;2023-02-03T15:31:31;5.97;;;2.20;;
7191;SDS011;3637;51.494;11.958;2023-02-03T15:34:37;5.80;;;2.50;;
7191;SDS011;3637;51.494;11.958;2023-02-03T15:37:44;10.43;;;1.90;;
7191;SDS011;3637;51.494;11.958;2023-02-03T15:40:50;5.37;;;1.97;;
7191;SDS011;3637;51.494;11.958;2023-02-03T15:43:57;2.43;;;1.60;;
7191;SDS011;3637;51.494;11.958;2023-02-03T15:47:04;6.87;;;2.43;;
7191;SDS011;3637;51.494;11.958;2023-02-03T15:50:23;3.20;;;1.70;;
7191;SDS011;3637;51.494;11.958;2023-02-03T15:53:30;5.70;;;2.43;;
7191;SDS011;3637;51.494;11.958;2023-02-03T15:56:38;4.80;;;2.50;;
7191;SDS011;3637;51.494;11.958;2023-02-03T15:59:43;9.57;;;2.57;;
7191;SDS011;3637;51.494;11.958;2023-02-03T16:02:51;5.93;;;2.23;;
7191;SDS011;3637;51.494;11.958;2023-02-03T16:05:57;4.13;;;1.90;;
7191;SDS011;3637;51.494;11.958;2023-02-03T16:09:22;4.17;;;1.90;;
7191;SDS011;3637;51.494;11.958;2023-02-03T16:12:27;3.30;;;1.53;;
7191;SDS011;3637;51.494;11.958;2023-02-03T16:15:31;3.47;;;2.27;;
7191;SDS011;3637;51.494;11.958;2023-02-03T16:18:35;4.70;;;1.80;;
7191;SDS011;3637;51.494;11.958;2023-02-03T16:21:42;5.43;;;2.00;;
7191;SDS011;3637;51.494;11.958;2023-02-03T16:24:52;5.00;;;2.00;;
7191;SDS011;3637;51.494;11.958;2023-02-03T16:27:55;4.33;;;1.70;;
7191;SDS011;3637;51.494;11.958;2023-02-03T16:31:15;8.03;;;2.33;;
7191;SDS011;3637;51.494;11.958;2023-02-03T16:34:39;5.63;;;1.90;;
7191;SDS011;3637;51.494;11.958;2023-02-03T16:38:03;5.53;;;2.20;;
7191;SDS011;3637;51.494;11.958;2023-02-03T16:41:24;4.97;;;1.90;;
7191;SDS011;3637;51.494;11.958;2023-02-03T16:44:43;3.60;;;1.80;;
7191;SDS011;3637;51.494;11.958;2023-02-03T16:48:03;10.80;;;2.50;;
7191;SDS011;3637;51.494;11.958;2023-02-03T16:51:32;5.27;;;2.13;;
7191;SDS011;3637;51.494;11.958;2023-02-03T16:54:37;8.57;;;2.73;;
7191;SDS011;3637;51.494;11.958;2023-02-03T16:57:39;4.43;;;2.00;;
7191;SDS011;3637;51.494;11.958;2023-02-03T17:00:42;8.67;;;2.13;;
7191;SDS011;3637;51.494;11.958;2023-02-03T17:03:45;5.83;;;2.00;;
7191;SDS011;3637;51.494;11.958;2023-02-03T17:06:48;3.37;;;2.00;;
7191;SDS011;3637;51.494;11.958;2023-02-03T17:09:51;4.03;;;1.50;;
7191;SDS011;3637;51.494;11.958;2023-02-03T17:12:52;4.00;;;1.63;;
7191;SDS011;3637;51.494;11.958;2023-02-03T17:15:54;3.47;;;2.00;;
7191;SDS011;3637;51.494;11.958;2023-02-03T17:18:57;7.17;;;2.40;;
7191;SDS011;3637;51.494;11.958;2023-02-03T17:22:00;4.70;;;1.97;;
7191;SDS011;3637;51.494;11.958;2023-02-03T17:25:02;8.83;;;2.60;;
7191;SDS011;3637;51.494;11.958;2023-02-03T17:28:07;5.07;;;2.23;;
7191;SDS011;3637;51.494;11.958;2023-02-03T17:31:12;7.13;;;1.70;;
7191;SDS011;3637;51.494;11.958;2023-02-03T17:34:15;7.93;;;2.50;;
7191;SDS011;3637;51.494;11.958;2023-02-03T17:37:18;3.60;;;2.27;;
7191;SDS011;3637;51.494;11.958;2023-02-03T17:40:20;7.73;;;2.10;;
7191;SDS011;3637;51.494;11.958;2023-02-03T17:43:22;6.10;;;1.57;;
7191;SDS011;3637;51.494;11.958;2023-02-03T17:46:24;5.90;;;2.13;;
7191;SDS011;3637;51.494;11.958;2023-02-03T17:49:26;5.67;;;2.30;;
7191;SDS011;3637;51.494;11.958;2023-02-03T17:52:29;4.03;;;2.43;;
7191;SDS011;3637;51.494;11.958;2023-02-03T17:55:31;5.30;;;1.87;;
7191;SDS011;3637;51.494;11.958;2023-02-03T17:58:34;7.43;;;2.00;;
7191;SDS011;3637;51.494;11.958;2023-02-03T18:01:36;10.50;;;1.77;;
7191;SDS011;3637;51.494;11.958;2023-02-03T18:04:40;6.47;;;2.43;;
7191;SDS011;3637;51.494;11.958;2023-02-03T18:07:44;2.90;;;1.60;;
7191;SDS011;3637;51.494;11.958;2023-02-03T18:10:46;8.37;;;2.30;;
7191;SDS011;3637;51.494;11.958;2023-02-03T18:13:48;6.47;;;2.00;;
7191;SDS011;3637;51.494;11.958;2023-02-03T18:16:50;2.93;;;1.83;;
7191;SDS011;3637;51.494;11.958;2023-02-03T18:19:52;6.63;;;2.33;;
7191;SDS011;3637;51.494;11.958;2023-02-03T18:22:55;5.47;;;1.70;;
7191;SDS011;3637;51.494;11.958;2023-02-03T18:25:57;14.90;;;2.60;;
7191;SDS011;3637;51.494;11.958;2023-02-03T18:28:59;6.67;;;1.80;;
7191;SDS011;3637;51.494;11.958;2023-02-03T18:32:01;6.53;;;2.40;;
7191;SDS011;3637;51.494;11.958;2023-02-03T18:35:03;11.67;;;2.57;;
7191;SDS011;3637;51.494;11.958;2023-02-03T18:38:11;3.43;;;2.03;;
7191;SDS011;3637;51.494;11.958;2023-02-03T18:41:13;4.43;;;2.23;;
7191;SDS011;3637;51.494;11.958;2023-02-03T18:44:16;9.57;;;3.37;;
7191;SDS011;3637;51.494;11.958;2023-02-03T18:47:22;4.50;;;2.33;;
7191;SDS011;3637;51.494;11.958;2023-02-03T18:50:23;9.57;;;2.53;;
7191;SDS011;3637;51.494;11.958;2023-02-03T18:53:27;11.70;;;2.43;;
7191;SDS011;3637;51.494;11.958;2023-02-03T18:56:30;4.47;;;1.90;;
7191;SDS011;3637;51.494;11.958;2023-02-03T18:59:34;7.00;;;2.23;;
7191;SDS011;3637;51.494;11.958;2023-02-03T19:02:36;5.40;;;2.53;;
7191;SDS011;3637;51.494;11.958;2023-02-03T19:05:38;4.47;;;1.70;;
7191;SDS011;3637;51.494;11.958;2023-02-03T19:08:42;5.90;;;2.23;;